Time;durP1;ratioP1;P1;durP2;ratioP2;P2;SDS_P1;SDS_P2;PMS_P1;PMS_P2;Temp;Humidity;BMP_temperature;BMP_pressure;BME280_temperature;BME280_humidity;BME280_pressure;Samples;Min_cycle;Max_cycle;Signal;HPM_P1;HPM_P2
2023/09/14 00:02:17;;;;;;;6.55;3.60;;;;;;;18.78;60.29;63944.56;4817354;29;20644;-74
2023/09/14 00:04:44;;;;;;;3.40;3.20;;;;;;;18.74;60.80;63940.41;4813514;29;20229;-75
2023/09/14 00:07:11;;;;;;;12.23;3.95;;;;;;;18.69;59.66;63930.03;4816673;29;20216;-75
2023/09/14 00:09:38;;;;;;;4.00;3.50;;;;;;;18.63;59.27;63929.47;4816634;29;20244;-73
2023/09/14 00:12:07;;;;;;;8.82;3.95;;;;;;;18.62;59.29;63927.91;4815833;29;20426;-74
2023/09/14 00:14:35;;;;;;;8.13;4.03;;;;;;;18.56;59.23;63921.66;4815099;29;20479;-74
2023/09/14 00:17:02;;;;;;;5.43;3.70;;;;;;;18.50;59.96;63915.91;4817053;29;20212;-75
2023/09/14 00:19:29;;;;;;;5.60;3.40;;;;;;;18.46;60.14;63908.66;4816141;29;20213;-74
2023/09/14 00:21:56;;;;;;;6.20;3.95;;;;;;;18.52;59.97;63918.00;4815429;29;20532;-76
2023/09/14 00:24:22;;;;;;;5.78;3.40;;;;;;;18.49;60.18;63914.88;4815042;29;20209;-74
2023/09/14 00:26:50;;;;;;;3.40;2.85;;;;;;;18.55;59.45;63915.97;4816829;29;20221;-74
2023/09/14 00:29:18;;;;;;;3.63;3.08;;;;;;;18.55;59.49;63918.53;4815999;29;20225;-75
2023/09/14 00:31:45;;;;;;;5.97;3.33;;;;;;;18.59;59.29;63927.88;4812047;29;20803;-75
2023/09/14 00:34:12;;;;;;;3.35;3.13;;;;;;;18.65;58.93;63931.56;4817418;29;20255;-76
2023/09/14 00:36:39;;;;;;;3.47;3.08;;;;;;;18.65;58.76;63931.03;4816641;29;20233;-74
2023/09/14 00:39:09;;;;;;;5.80;3.92;;;;;;;18.68;58.58;63932.09;4813783;29;20585;-75
2023/09/14 00:41:36;;;;;;;5.75;3.72;;;;;;;18.68;58.91;63934.16;4807530;29;20229;-74
2023/09/14 00:44:04;;;;;;;4.80;3.40;;;;;;;18.74;58.56;63935.75;4820195;29;20212;-76
2023/09/14 00:46:32;;;;;;;4.40;3.33;;;;;;;18.74;58.19;63938.34;4834987;29;20212;-76
2023/09/14 00:49:01;;;;;;;5.85;3.72;;;;;;;18.82;58.57;63948.75;4824655;29;20214;-73
2023/09/14 00:51:29;;;;;;;7.10;3.72;;;;;;;18.81;58.34;63945.63;4814655;29;20282;-75
2023/09/14 00:53:59;;;;;;;6.60;3.30;;;;;;;18.83;58.11;63947.72;4816388;29;20213;-73
2023/09/14 00:56:27;;;;;;;4.63;3.03;;;;;;;18.86;58.22;63953.44;4816385;29;20225;-74
2023/09/14 00:58:55;;;;;;;3.35;3.05;;;;;;;18.91;58.02;63958.13;4812497;29;20216;-73
2023/09/14 01:01:23;;;;;;;7.28;3.15;;;;;;;18.86;58.21;63948.28;4816757;29;20300;-76
2023/09/14 01:03:51;;;;;;;7.97;3.58;;;;;;;18.85;58.31;63947.25;4815871;29;20405;-74
2023/09/14 01:06:18;;;;;;;3.78;3.10;;;;;;;18.86;58.22;63948.28;4814602;29;20407;-75
2023/09/14 01:08:45;;;;;;;10.18;3.63;;;;;;;18.84;58.42;63950.84;4814273;29;20230;-74
2023/09/14 01:11:12;;;;;;;6.47;3.33;;;;;;;18.70;60.12;63938.81;4815740;29;20305;-75
2023/09/14 01:13:49;;;;;;;4.90;3.42;;;;;;;18.64;59.87;63930.50;4816437;29;20255;-74
2023/09/14 01:16:22;;;;;;;5.03;3.15;;;;;;;18.61;59.74;63927.38;4814231;29;20229;-75
2023/09/14 01:18:55;;;;;;;3.50;3.33;;;;;;;18.59;60.75;63922.19;4816311;29;20213;-74
2023/09/14 01:21:42;;;;;;;7.00;3.70;;;;;;;18.59;60.54;63924.78;4823922;29;20233;-74
2023/09/14 01:24:18;;;;;;;3.40;3.15;;;;;;;18.55;60.66;63915.97;4816443;29;20199;-73
2023/09/14 01:26:47;;;;;;;6.72;3.85;;;;;;;18.53;60.65;63916.47;4815348;29;20251;-74
2023/09/14 01:29:27;;;;;;;4.63;3.50;;;;;;;18.49;61.31;63909.19;4816600;29;20456;-75
2023/09/14 01:31:54;;;;;;;3.50;3.20;;;;;;;18.46;61.13;63909.19;4816305;29;20205;-75
2023/09/14 01:34:21;;;;;;;10.15;3.30;;;;;;;18.45;61.11;63907.63;4814188;29;20285;-73
2023/09/14 01:36:52;;;;;;;4.05;3.00;;;;;;;18.50;60.88;63910.25;4813841;29;20209;-74
2023/09/14 01:39:20;;;;;;;4.25;3.80;;;;;;;18.52;62.64;63912.34;4816095;29;20269;-74
2023/09/14 01:41:54;;;;;;;3.80;3.47;;;;;;;18.42;62.62;63902.41;4815361;29;20247;-75
2023/09/14 01:44:22;;;;;;;5.55;3.97;;;;;;;18.37;62.62;63897.19;4811808;29;20280;-74
2023/09/14 01:46:49;;;;;;;3.42;3.13;;;;;;;18.32;63.64;63897.66;4816523;29;20205;-73
2023/09/14 01:49:16;;;;;;;4.13;3.70;;;;;;;18.28;63.45;63890.38;4816162;29;20212;-74
2023/09/14 01:51:43;;;;;;;4.47;4.05;;;;;;;18.27;63.65;63887.28;4819671;29;20624;-73
2023/09/14 01:54:10;;;;;;;5.18;3.72;;;;;;;18.30;63.42;63895.06;4814380;29;20250;-74
2023/09/14 01:56:37;;;;;;;4.72;3.65;;;;;;;18.23;63.48;63883.13;4815811;29;20217;-74
2023/09/14 01:59:05;;;;;;;4.63;3.35;;;;;;;18.22;63.48;63887.22;4815919;29;20205;-74
2023/09/14 02:01:32;;;;;;;4.22;3.60;;;;;;;18.24;63.95;63888.81;4813484;29;20457;-74
2023/09/14 02:03:59;;;;;;;5.68;3.88;;;;;;;18.23;65.19;63882.59;4814571;29;20575;-74
2023/09/14 02:06:26;;;;;;;4.50;3.40;;;;;;;18.19;65.18;63881.53;4815804;29;20221;-73
2023/09/14 02:08:53;;;;;;;5.35;3.88;;;;;;;18.15;65.22;63869.63;4814876;29;20494;-73
2023/09/14 02:11:20;;;;;;;5.93;3.38;;;;;;;18.13;64.98;63880.44;4811406;29;20290;-74
2023/09/14 02:13:47;;;;;;;3.67;3.40;;;;;;;18.11;65.88;63872.69;4815939;29;20281;-73
2023/09/14 02:16:16;;;;;;;4.57;3.50;;;;;;;18.12;65.64;63871.16;4815787;29;20229;-75
2023/09/14 02:18:42;;;;;;;4.55;3.58;;;;;;;18.12;66.16;63876.81;4815418;29;20205;-74
2023/09/14 02:21:10;;;;;;;5.45;3.67;;;;;;;18.09;66.77;63870.59;4810260;29;20308;-73
2023/09/14 02:23:37;;;;;;;4.18;3.78;;;;;;;18.06;66.25;63865.41;4819100;29;20209;-73
2023/09/14 02:26:04;;;;;;;7.88;3.75;;;;;;;18.09;65.99;63871.13;4818964;29;20297;-73
2023/09/14 02:28:31;;;;;;;6.10;4.25;;;;;;;18.14;66.76;63880.97;4816772;29;20273;-74
2023/09/14 02:30:58;;;;;;;9.63;4.57;;;;;;;18.14;66.73;63878.91;4816553;29;20268;-74
2023/09/14 02:33:27;;;;;;;4.47;3.78;;;;;;;18.13;66.95;63875.28;4818864;29;20206;-74
2023/09/14 02:35:54;;;;;;;5.30;4.40;;;;;;;18.11;67.32;63875.25;4819837;29;20542;-73
2023/09/14 02:38:22;;;;;;;8.48;4.53;;;;;;;18.08;68.15;63859.78;4814667;29;20201;-74
2023/09/14 02:40:49;;;;;;;7.35;4.03;;;;;;;18.08;68.42;63867.50;4817812;29;20233;-74
2023/09/14 02:43:15;;;;;;;4.38;4.00;;;;;;;18.10;68.95;63874.22;4818565;29;20437;-75
2023/09/14 02:45:42;;;;;;;4.50;4.03;;;;;;;18.07;69.08;63863.88;4817256;29;20297;-74
2023/09/14 02:48:09;;;;;;;6.20;4.05;;;;;;;18.09;69.38;63868.00;4815890;29;20215;-74
2023/09/14 02:50:38;;;;;;;6.35;3.60;;;;;;;18.08;69.48;63867.50;4818225;29;20251;-75
2023/09/14 02:53:05;;;;;;;4.97;4.05;;;;;;;18.08;69.90;63864.94;4818497;29;20494;-74
2023/09/14 02:55:34;;;;;;;6.32;4.07;;;;;;;18.07;70.69;63871.09;4816228;29;20229;-73
2023/09/14 02:58:01;;;;;;;8.30;3.72;;;;;;;18.05;70.47;63866.94;4813613;29;20232;-74
2023/09/14 03:00:28;;;;;;;5.10;4.18;;;;;;;18.03;70.19;63861.78;4818016;29;20225;-73
2023/09/14 03:02:55;;;;;;;6.10;3.88;;;;;;;17.99;70.29;63857.59;4818085;29;20499;-74
2023/09/14 03:05:22;;;;;;;4.93;3.80;;;;;;;17.96;71.15;63859.63;4815100;29;20553;-73
2023/09/14 03:07:50;;;;;;;6.65;4.00;;;;;;;17.95;70.68;63850.84;4818454;29;20206;-74
2023/09/14 03:10:17;;;;;;;4.57;3.80;;;;;;;17.93;70.11;63853.94;4817646;29;20241;-74
2023/09/14 03:12:44;;;;;;;4.30;4.00;;;;;;;17.93;70.19;63853.94;4817682;29;20202;-75
2023/09/14 03:15:12;;;;;;;5.70;3.88;;;;;;;17.91;70.75;63851.84;4814334;29;20241;-74
2023/09/14 03:17:39;;;;;;;4.43;4.03;;;;;;;17.91;70.71;63851.84;4817856;29;20206;-75
2023/09/14 03:20:09;;;;;;;3.78;3.47;;;;;;;17.93;71.47;63854.44;4817398;29;20509;-75
2023/09/14 03:22:37;;;;;;;9.43;4.32;;;;;;;17.89;71.37;63847.72;4815655;29;20223;-74
2023/09/14 03:25:07;;;;;;;5.72;4.20;;;;;;;17.89;71.80;63847.19;4815593;29;20293;-74
2023/09/14 03:27:35;;;;;;;4.43;3.80;;;;;;;17.90;71.34;63850.81;4817953;29;20262;-75
2023/09/14 03:30:02;;;;;;;5.35;4.00;;;;;;;17.89;71.48;63852.34;4816319;29;20233;-74
2023/09/14 03:32:30;;;;;;;7.30;4.15;;;;;;;17.93;71.68;63851.88;4813425;29;20218;-74
2023/09/14 03:34:57;;;;;;;5.15;4.00;;;;;;;17.92;72.11;63848.25;4817838;29;20542;-74
2023/09/14 03:37:24;;;;;;;9.02;4.90;;;;;;;17.86;73.01;63842.00;4817397;29;20213;-74
2023/09/14 03:39:51;;;;;;;5.03;4.53;;;;;;;17.86;73.17;63849.72;4817116;29;20235;-74
2023/09/14 03:42:19;;;;;;;5.30;4.72;;;;;;;17.83;74.11;63841.47;4814563;29;20217;-74
2023/09/14 03:44:46;;;;;;;8.85;4.60;;;;;;;17.84;73.90;63844.56;4817697;29;20240;-74
2023/09/14 03:47:13;;;;;;;4.65;3.97;;;;;;;17.78;74.16;63835.72;4817506;29;20284;-77
2023/09/14 03:49:40;;;;;;;4.95;4.05;;;;;;;17.74;75.61;63834.66;4815295;29;20210;-74
2023/09/14 03:52:07;;;;;;;4.82;4.38;;;;;;;17.72;75.66;63834.63;4815692;29;20421;-75
2023/09/14 03:54:34;;;;;;;8.27;5.20;;;;;;;17.69;75.66;63828.94;4816349;29;20201;-74
2023/09/14 03:57:01;;;;;;;4.55;4.10;;;;;;;17.62;75.76;63824.72;4817320;29;20205;-76
2023/09/14 03:59:30;;;;;;;7.32;4.30;;;;;;;17.47;77.22;63803.44;4813388;29;20210;-75
2023/09/14 04:01:57;;;;;;;5.07;4.50;;;;;;;17.56;76.99;63815.41;4815541;29;20209;-74
2023/09/14 04:04:24;;;;;;;5.57;4.18;;;;;;;17.56;76.49;63813.34;4816652;29;20206;-75
2023/09/14 04:06:51;;;;;;;4.75;4.32;;;;;;;17.59;76.73;63816.47;4816584;29;20268;-74
2023/09/14 04:09:19;;;;;;;4.50;4.10;;;;;;;17.58;77.24;63815.44;4812042;29;20210;-74
2023/09/14 04:11:46;;;;;;;7.03;4.20;;;;;;;17.51;77.46;63807.63;4811083;29;20242;-75
2023/09/14 04:14:13;;;;;;;7.35;4.60;;;;;;;17.50;77.97;63806.59;4799252;29;20430;-75
2023/09/14 04:16:43;;;;;;;5.88;4.38;;;;;;;17.53;77.44;63809.69;4802272;29;20249;-73
2023/09/14 04:19:11;;;;;;;6.55;4.47;;;;;;;17.50;77.85;63809.16;4815159;29;20213;-74
2023/09/14 04:21:39;;;;;;;4.60;4.20;;;;;;;17.49;78.05;63802.97;4822588;29;20224;-74
2023/09/14 04:24:07;;;;;;;4.53;4.10;;;;;;;17.50;78.73;63806.59;4827963;29;20209;-73
2023/09/14 04:26:34;;;;;;;6.95;4.35;;;;;;;17.57;77.72;63813.88;4811504;29;20273;-74
2023/09/14 04:29:01;;;;;;;5.88;4.03;;;;;;;17.58;77.46;63812.84;4815449;29;20225;-75
2023/09/14 04:31:29;;;;;;;8.20;5.57;;;;;;;17.64;77.17;63821.16;4816383;29;20245;-75
2023/09/14 04:33:57;;;;;;;9.10;4.90;;;;;;;17.70;76.55;63827.94;4814875;29;20201;-74
2023/09/14 04:36:24;;;;;;;6.47;4.97;;;;;;;17.72;76.96;63830.00;4813780;29;20229;-75
2023/09/14 04:38:51;;;;;;;6.43;5.13;;;;;;;17.79;77.76;63836.78;4816745;29;20250;-76
2023/09/14 04:41:19;;;;;;;7.68;4.75;;;;;;;17.89;76.79;63842.03;4813584;29;20542;-75
2023/09/14 04:43:46;;;;;;;6.55;3.88;;;;;;;17.96;75.84;63857.06;4816411;29;20270;-76
2023/09/14 04:46:13;;;;;;;5.38;4.07;;;;;;;17.95;75.43;63858.59;4814049;29;20233;-75
2023/09/14 04:48:42;;;;;;;4.55;4.15;;;;;;;18.03;75.65;63864.88;4816823;29;20244;-78
2023/09/14 04:51:11;;;;;;;7.30;3.75;;;;;;;18.06;74.68;63862.84;4814433;29;20252;-77
2023/09/14 04:53:38;;;;;;;7.40;3.90;;;;;;;18.08;74.34;63870.09;4816385;29;20232;-75
2023/09/14 04:56:05;;;;;;;5.88;3.15;;;;;;;18.05;76.14;63861.78;4813440;29;20300;-75
2023/09/14 04:58:32;;;;;;;4.20;3.88;;;;;;;18.08;77.09;63867.50;4814294;29;20268;-75
2023/09/14 05:00:59;;;;;;;9.60;3.60;;;;;;;18.18;74.67;63879.97;4821625;29;20221;-75
2023/09/14 05:03:26;;;;;;;8.60;3.70;;;;;;;18.37;73.11;63897.19;4814268;29;20390;-74
2023/09/14 05:05:54;;;;;;;7.47;4.25;;;;;;;18.36;75.64;63896.66;4816584;29;20232;-75
2023/09/14 05:08:23;;;;;;;4.22;3.70;;;;;;;18.51;74.92;63913.84;4814083;29;20216;-75
2023/09/14 05:10:51;;;;;;;6.80;3.63;;;;;;;18.66;74.99;63932.06;4815495;29;20249;-74
2023/09/14 05:13:20;;;;;;;9.13;3.42;;;;;;;18.85;75.69;63952.41;4813006;29;20220;-73
2023/09/14 05:15:47;;;;;;;6.03;4.25;;;;;;;18.96;73.09;63958.72;4815734;29;20214;-77
2023/09/14 05:18:14;;;;;;;6.50;3.70;;;;;;;19.16;73.15;63979.56;4813423;29;20514;-75
2023/09/14 05:20:44;;;;;;;4.22;3.80;;;;;;;19.39;71.21;64003.03;4815099;29;20225;-74
2023/09/14 05:23:10;;;;;;;6.03;4.07;;;;;;;19.57;70.55;64024.38;4814577;29;20229;-74
2023/09/14 05:25:39;;;;;;;5.00;4.47;;;;;;;19.69;69.97;64031.22;4812438;29;20227;-74
2023/09/14 05:28:08;;;;;;;8.88;4.35;;;;;;;19.77;67.07;64045.25;4815322;29;20221;-76
2023/09/14 05:30:35;;;;;;;9.40;4.32;;;;;;;19.87;68.55;64058.28;4814034;29;20538;-75
2023/09/14 05:33:02;;;;;;;6.72;4.45;;;;;;;19.94;68.22;64062.47;4815223;29;20220;-75
2023/09/14 05:35:30;;;;;;;8.27;4.47;;;;;;;20.06;68.39;64078.09;4814070;29;20229;-75
2023/09/14 05:37:57;;;;;;;7.95;5.30;;;;;;;19.98;67.90;64066.66;4820993;29;20459;-74
2023/09/14 05:40:24;;;;;;;5.57;4.60;;;;;;;20.03;67.26;64069.28;4817469;29;20257;-74
2023/09/14 05:42:53;;;;;;;9.85;4.70;;;;;;;19.96;69.80;64062.50;4815939;29;20235;-75
2023/09/14 05:45:21;;;;;;;4.55;4.15;;;;;;;19.94;67.67;64063.00;4811944;29;20289;-75
2023/09/14 05:47:48;;;;;;;4.70;4.22;;;;;;;20.04;68.31;64078.59;4797490;29;20555;-75
2023/09/14 05:50:15;;;;;;;5.30;4.68;;;;;;;20.16;68.89;64080.25;4797120;29;20613;-76
2023/09/14 05:52:42;;;;;;;11.27;4.38;;;;;;;20.24;66.20;64093.78;4812080;29;20432;-75
2023/09/14 05:55:10;;;;;;;7.15;4.95;;;;;;;20.42;66.18;64112.56;4818472;29;20283;-75
2023/09/14 05:57:37;;;;;;;10.27;5.68;;;;;;;20.62;64.10;64130.88;4818811;29;20209;-75
2023/09/14 06:00:12;;;;;;;10.57;5.00;;;;;;;20.63;61.59;64134.50;4815752;29;20292;-74
2023/09/14 06:02:40;;;;;;;10.95;4.82;;;;;;;20.63;62.30;64131.91;4823825;29;20475;-74
2023/09/14 06:05:08;;;;;;;11.13;5.82;;;;;;;20.60;62.54;64133.97;4819175;29;20305;-74
2023/09/14 06:07:35;;;;;;;9.63;5.15;;;;;;;20.69;63.12;64141.28;4817086;29;20213;-74
2023/09/14 06:10:03;;;;;;;10.00;5.97;;;;;;;20.60;62.98;64126.69;4813310;29;20229;-75
2023/09/14 06:12:30;;;;;;;10.50;6.10;;;;;;;20.61;63.45;64132.41;4806293;29;20299;-75
2023/09/14 06:14:58;;;;;;;10.32;5.88;;;;;;;20.69;63.59;64135.59;4809575;29;20225;-73
2023/09/14 06:17:26;;;;;;;11.57;5.75;;;;;;;20.78;62.48;64144.97;4817318;29;20221;-73
2023/09/14 06:19:53;;;;;;;12.57;5.45;;;;;;;20.94;61.65;64161.69;4811637;29;20229;-76
2023/09/14 06:22:21;;;;;;;10.13;5.55;;;;;;;21.08;62.80;64183.56;4801279;30;20221;-74
2023/09/14 06:24:48;;;;;;;10.63;5.80;;;;;;;21.41;61.49;64215.44;4801246;29;20230;-75
2023/09/14 06:27:15;;;;;;;8.95;5.15;;;;;;;21.56;60.95;64228.50;4800899;29;20211;-76
2023/09/14 06:29:42;;;;;;;10.77;6.70;;;;;;;21.57;60.06;64232.16;4822827;29;20214;-76
2023/09/14 06:32:09;;;;;;;10.38;5.35;;;;;;;21.49;60.71;64221.72;4818930;29;20233;-74
2023/09/14 06:34:37;;;;;;;17.92;5.75;;;;;;;21.35;60.43;64207.09;4820206;29;20410;-75
2023/09/14 06:37:04;;;;;;;10.63;6.35;;;;;;;21.46;59.47;64221.19;4813850;29;20206;-76
2023/09/14 06:39:31;;;;;;;11.32;6.47;;;;;;;21.29;60.86;64206.03;4817460;29;20209;-75
2023/09/14 06:41:59;;;;;;;11.38;6.50;;;;;;;21.22;60.76;64196.13;4818818;29;20486;-75
2023/09/14 06:44:25;;;;;;;10.98;7.07;;;;;;;21.26;60.48;64200.28;4816927;29;20217;-74
2023/09/14 06:46:53;;;;;;;7.65;5.68;;;;;;;20.93;60.94;64163.25;4816074;29;20506;-75
2023/09/14 06:49:20;;;;;;;16.92;6.68;;;;;;;20.93;61.21;64165.28;4806719;29;20296;-74
2023/09/14 06:51:49;;;;;;;8.93;5.88;;;;;;;21.00;60.46;64167.44;4822348;29;20294;-74
2023/09/14 06:54:16;;;;;;;10.38;5.72;;;;;;;20.89;60.98;64161.63;4809247;29;20205;-75
2023/09/14 06:56:43;;;;;;;9.45;5.75;;;;;;;20.89;61.44;64161.13;4806240;29;20234;-73
2023/09/14 06:59:10;;;;;;;13.80;5.82;;;;;;;20.71;62.95;64140.25;4817627;29;20229;-75
2023/09/14 07:01:37;;;;;;;15.38;6.07;;;;;;;20.93;61.86;64168.41;4836806;29;20224;-75
2023/09/14 07:04:04;;;;;;;13.27;5.95;;;;;;;21.30;61.40;64204.47;4825167;29;20283;-75
2023/09/14 07:06:33;;;;;;;21.20;5.63;;;;;;;21.54;60.27;64224.34;4816294;29;20233;-76
2023/09/14 07:09:03;;;;;;;11.75;5.13;;;;;;;21.79;58.69;64252.56;4826679;29;20210;-76
2023/09/14 07:11:29;;;;;;;13.80;5.43;;;;;;;21.94;57.04;64270.31;4817527;29;20244;-75
2023/09/14 07:13:58;;;;;;;5.85;5.13;;;;;;;22.17;56.16;64291.75;4826024;29;20205;-75
2023/09/14 07:16:25;;;;;;;8.25;5.55;;;;;;;22.37;55.70;64315.78;4819545;29;20240;-75
2023/09/14 07:18:52;;;;;;;12.38;6.28;;;;;;;22.58;55.13;64332.56;4821902;29;20217;-78
2023/09/14 07:21:19;;;;;;;12.60;5.97;;;;;;;22.54;54.51;64333.03;4818137;29;20224;-75
2023/09/14 07:23:47;;;;;;;13.52;6.47;;;;;;;22.67;53.52;64344.03;4824090;29;20233;-75
2023/09/14 07:26:16;;;;;;;15.38;5.30;;;;;;;22.78;52.72;64358.66;4821834;29;20270;-77
2023/09/14 07:28:43;;;;;;;10.05;5.50;;;;;;;22.80;53.39;64357.63;4817657;29;20234;-74
2023/09/14 07:31:10;;;;;;;20.65;6.18;;;;;;;22.94;53.49;64372.28;4818147;29;20233;-76
2023/09/14 07:33:37;;;;;;;12.77;5.35;;;;;;;23.18;51.82;64399.97;4812144;29;20314;-76
2023/09/14 07:36:04;;;;;;;12.27;5.85;;;;;;;23.16;51.12;64397.88;4818055;29;20383;-75
2023/09/14 07:38:31;;;;;;;6.80;5.07;;;;;;;23.15;51.23;64402.03;4815942;29;20479;-76
2023/09/14 07:40:58;;;;;;;12.88;5.53;;;;;;;23.13;50.17;64389.53;4818031;29;20226;-75
2023/09/14 07:43:27;;;;;;;9.63;4.72;;;;;;;23.20;50.29;64399.47;4815843;29;20415;-76
2023/09/14 07:45:56;;;;;;;9.35;5.70;;;;;;;23.47;50.05;64429.81;4813339;29;20259;-76
2023/09/14 07:48:23;;;;;;;6.53;5.10;;;;;;;23.38;51.03;64420.38;4805528;29;20338;-75
2023/09/14 07:50:50;;;;;;;16.45;5.20;;;;;;;23.50;50.73;64430.34;4808980;29;20247;-78
2023/09/14 07:53:18;;;;;;;15.43;6.10;;;;;;;23.52;50.04;64435.03;4807970;29;20457;-74
2023/09/14 07:55:45;;;;;;;12.98;4.82;;;;;;;23.49;49.19;64432.41;4805387;29;20237;-75
2023/09/14 07:58:12;;;;;;;8.90;4.25;;;;;;;23.46;49.83;64429.28;4808915;29;20205;-77
2023/09/14 08:00:41;;;;;;;13.98;5.32;;;;;;;23.31;49.18;64413.59;4811619;29;20471;-76
2023/09/14 08:03:09;;;;;;;8.93;5.78;;;;;;;23.32;48.84;64417.22;4817195;29;20269;-76
2023/09/14 08:05:36;;;;;;;13.52;5.68;;;;;;;23.42;49.38;64427.16;4814625;29;20257;-76
2023/09/14 08:08:04;;;;;;;11.00;5.55;;;;;;;23.57;49.25;64442.88;4816305;29;20220;-75
2023/09/14 08:10:32;;;;;;;14.35;6.25;;;;;;;23.84;48.24;64465.91;4816940;29;20521;-75
2023/09/14 08:13:00;;;;;;;21.23;6.75;;;;;;;24.07;48.24;64497.81;4816769;29;20251;-77
2023/09/14 08:15:27;;;;;;;12.75;5.95;;;;;;;24.33;47.52;64521.91;4814923;29;20240;-76
2023/09/14 08:17:56;;;;;;;15.18;6.00;;;;;;;24.43;47.47;64524.56;4816997;29;20201;-76
2023/09/14 08:20:23;;;;;;;16.15;6.28;;;;;;;24.54;47.19;64541.81;4815612;29;20229;-75
2023/09/14 08:22:50;;;;;;;11.95;6.00;;;;;;;24.73;46.81;64558.59;4817197;29;20231;-76
2023/09/14 08:25:17;;;;;;;17.95;6.22;;;;;;;24.86;46.35;64572.75;4815787;29;20296;-75
2023/09/14 08:27:44;;;;;;;16.80;6.45;;;;;;;24.93;45.37;64577.47;4826769;29;20209;-76
2023/09/14 08:30:12;;;;;;;13.05;6.00;;;;;;;24.98;45.13;64590.53;4816688;29;20256;-75
2023/09/14 08:32:39;;;;;;;15.93;6.45;;;;;;;25.08;45.62;64597.84;4815591;29;20271;-76
2023/09/14 08:35:24;;;;;;;11.23;5.53;;;;;;;24.93;45.26;64579.53;4815147;29;20240;-77
2023/09/14 08:37:53;;;;;;;12.13;6.30;;;;;;;24.65;45.85;64550.72;4814635;29;20286;-77
2023/09/14 08:40:20;;;;;;;10.43;6.30;;;;;;;24.69;45.64;64557.53;4829236;29;20229;-75
2023/09/14 08:42:50;;;;;;;16.23;5.63;;;;;;;24.88;45.67;64574.84;4824311;29;20248;-74
2023/09/14 08:45:20;;;;;;;7.20;5.30;;;;;;;25.10;45.06;64597.34;4826743;29;20246;-76
2023/09/14 08:47:48;;;;;;;7.90;5.40;;;;;;;25.43;44.60;64636.63;4817034;29;20213;-75
2023/09/14 08:50:18;;;;;;;10.65;6.30;;;;;;;25.58;43.29;64647.13;4824690;29;20553;-75
2023/09/14 08:52:47;;;;;;;11.98;5.18;;;;;;;25.58;42.74;64652.88;4817371;29;20259;-77
2023/09/14 08:55:15;;;;;;;10.93;5.72;;;;;;;25.66;43.63;64658.63;4816595;29;20298;-76
2023/09/14 08:57:44;;;;;;;11.05;4.60;;;;;;;26.13;42.64;64710.00;4818224;29;20213;-76
2023/09/14 09:00:15;;;;;;;14.23;5.63;;;;;;;26.31;43.14;64725.75;4814087;29;20236;-76
2023/09/14 09:02:44;;;;;;;11.23;5.53;;;;;;;26.63;43.18;64756.69;4814231;29;20232;-76
2023/09/14 09:05:12;;;;;;;8.77;4.90;;;;;;;26.63;40.77;64759.31;4814869;29;20241;-74
2023/09/14 09:07:41;;;;;;;10.63;4.60;;;;;;;26.56;40.87;64751.97;4816559;29;20238;-76
2023/09/14 09:10:17;;;;;;;6.72;5.22;;;;;;;26.82;41.10;64779.78;4814193;29;20274;-77
2023/09/14 09:12:46;;;;;;;9.70;5.85;;;;;;;26.80;40.94;64774.53;4817557;29;20253;-76
2023/09/14 09:15:13;;;;;;;8.27;5.90;;;;;;;26.97;42.30;64795.50;4817003;29;20231;-77
2023/09/14 09:17:41;;;;;;;14.65;5.82;;;;;;;27.31;40.58;64830.66;4807337;29;20198;-77
2023/09/14 09:20:16;;;;;;;13.90;6.05;;;;;;;27.58;40.24;64861.09;4808948;29;20290;-76
2023/09/14 09:22:44;;;;;;;9.10;5.80;;;;;;;28.05;40.23;64908.34;4806569;29;20209;-75
2023/09/14 09:25:14;;;;;;;7.72;5.10;;;;;;;28.50;38.82;64957.16;4818166;29;20470;-75
2023/09/14 09:27:41;;;;;;;7.07;5.00;;;;;;;27.68;38.36;64869.50;4815329;29;20237;-75
2023/09/14 09:30:09;;;;;;;7.55;5.57;;;;;;;27.41;39.43;64846.38;4825507;29;20281;-75
2023/09/14 09:32:38;;;;;;;7.90;5.70;;;;;;;27.49;39.44;64844.31;4838606;29;20278;-75
2023/09/14 09:35:22;;;;;;;8.07;6.20;;;;;;;27.65;39.72;64866.34;4810020;29;20553;-75
2023/09/14 09:37:50;;;;;;;11.25;5.47;;;;;;;27.98;39.76;64903.09;4806260;29;20212;-77
2023/09/14 09:40:20;;;;;;;10.70;5.45;;;;;;;28.06;37.87;64909.41;4823402;29;20224;-76
2023/09/14 09:42:47;;;;;;;11.23;6.13;;;;;;;28.02;38.84;64902.06;4822155;29;20277;-75
2023/09/14 09:45:15;;;;;;;16.77;5.70;;;;;;;27.63;39.19;64866.84;4816702;29;20477;-77
2023/09/14 09:47:42;;;;;;;19.40;5.88;;;;;;;27.74;39.00;64870.03;4816091;29;20485;-76
2023/09/14 09:50:11;;;;;;;10.95;6.10;;;;;;;27.77;39.16;64881.56;4829985;29;20224;-77
2023/09/14 09:52:40;;;;;;;7.32;5.82;;;;;;;28.05;38.79;64910.97;4838131;29;20240;-77
2023/09/14 09:55:09;;;;;;;12.00;5.80;;;;;;;27.82;38.70;64886.28;4819661;29;20536;-75
2023/09/14 09:57:38;;;;;;;10.98;6.10;;;;;;;27.41;39.12;64843.25;4818816;29;20262;-75
2023/09/14 10:00:13;;;;;;;11.45;5.47;;;;;;;27.30;39.69;64832.25;4803081;29;20226;-76
2023/09/14 10:02:41;;;;;;;8.43;5.65;;;;;;;27.52;38.77;64852.72;4807118;29;20189;-75
2023/09/14 10:05:08;;;;;;;11.07;5.10;;;;;;;27.55;39.09;64855.84;4817824;29;20229;-75
2023/09/14 10:07:40;;;;;;;16.75;6.20;;;;;;;27.24;39.22;64821.22;4819671;29;20292;-76
2023/09/14 10:10:09;;;;;;;7.40;6.15;;;;;;;27.24;39.17;64825.91;4819963;29;20312;-76
2023/09/14 10:12:42;;;;;;;9.43;6.15;;;;;;;27.38;39.35;64835.41;4817273;29;20455;-76
2023/09/14 10:15:10;;;;;;;10.10;5.45;;;;;;;27.62;39.06;64867.91;4819302;29;20278;-77
2023/09/14 10:17:38;;;;;;;9.57;5.05;;;;;;;27.92;39.18;64892.06;4821964;29;20209;-76
2023/09/14 10:20:08;;;;;;;10.27;5.38;;;;;;;27.82;37.33;64886.81;4814061;29;20250;-75
2023/09/14 10:22:37;;;;;;;9.85;5.63;;;;;;;27.72;37.58;64878.41;4817478;29;20241;-76
2023/09/14 10:25:06;;;;;;;7.22;5.10;;;;;;;27.95;37.74;64899.94;4819099;29;20229;-77
2023/09/14 10:27:34;;;;;;;6.70;5.45;;;;;;;27.77;37.52;64881.03;4813882;29;20235;-76
2023/09/14 10:30:11;;;;;;;5.80;4.68;;;;;;;27.80;37.68;64878.94;4813601;29;20241;-78
2023/09/14 10:32:45;;;;;;;9.45;4.63;;;;;;;28.06;36.72;64909.41;4818588;29;20237;-76
2023/09/14 10:35:14;;;;;;;7.97;4.85;;;;;;;28.25;36.21;64931.44;4812030;29;20241;-78
2023/09/14 10:37:47;;;;;;;8.15;4.93;;;;;;;28.11;35.66;64917.25;4817901;29;20559;-77
2023/09/14 10:40:17;;;;;;;9.75;5.13;;;;;;;28.23;34.86;64929.34;4808197;29;20225;-76
2023/09/14 10:42:45;;;;;;;7.15;4.38;;;;;;;28.43;34.58;64953.50;4815192;29;20240;-78
2023/09/14 10:45:19;;;;;;;12.35;4.22;;;;;;;28.78;34.18;64984.50;4820202;29;20233;-78
2023/09/14 10:47:50;;;;;;;13.00;5.50;;;;;;;29.13;33.97;65018.13;4806303;29;20511;-77
2023/09/14 10:50:21;;;;;;;8.18;4.43;;;;;;;28.72;32.99;64980.28;4810221;29;20524;-77
2023/09/14 10:52:53;;;;;;;9.38;5.18;;;;;;;28.77;33.50;64985.56;4815477;29;20406;-77
2023/09/14 10:55:25;;;;;;;5.82;5.30;;;;;;;29.01;32.59;65013.91;4816809;29;20289;-78
2023/09/14 10:57:54;;;;;;;8.85;4.13;;;;;;;28.93;32.77;65000.25;4822968;29;20210;-77
2023/09/14 11:00:42;;;;;;;7.43;4.40;;;;;;;28.95;31.31;65004.44;4811446;29;20279;-77
2023/09/14 11:03:13;;;;;;;7.85;3.88;;;;;;;28.88;31.92;64995.00;4819772;29;20217;-76
2023/09/14 11:05:43;;;;;;;11.73;5.32;;;;;;;28.81;32.44;64984.50;4805174;29;20636;-76
2023/09/14 11:08:12;;;;;;;8.02;4.57;;;;;;;28.65;32.15;64972.94;4814192;29;20456;-77
2023/09/14 11:10:56;;;;;;;5.10;4.45;;;;;;;28.94;32.25;65003.91;4815797;29;20221;-78
2023/09/14 11:13:30;;;;;;;12.73;4.70;;;;;;;29.33;31.48;65044.41;4817796;29;20284;-77
2023/09/14 11:16:06;;;;;;;5.22;4.15;;;;;;;29.83;30.82;65096.44;4815155;29;20228;-76
2023/09/14 11:18:50;;;;;;;7.68;5.03;;;;;;;29.72;30.90;65087.50;4814090;29;20568;-79
2023/09/14 11:21:42;;;;;;;9.57;4.57;;;;;;;29.76;30.65;65089.06;4814566;29;20236;-80
2023/09/14 11:24:16;;;;;;;10.80;4.85;;;;;;;29.58;30.52;65067.53;4829355;29;20225;-77
2023/09/14 11:26:55;;;;;;;6.28;4.35;;;;;;;29.94;31.30;65105.88;4818358;29;20225;-76
2023/09/14 11:29:29;;;;;;;6.97;4.68;;;;;;;30.34;30.46;65147.97;4818064;29;20225;-77
2023/09/14 11:32:01;;;;;;;28.27;5.32;;;;;;;30.79;28.91;65192.16;4815337;29;20205;-79
2023/09/14 11:34:31;;;;;;;6.22;4.47;;;;;;;31.10;28.32;65229.50;4813957;29;20274;-76
2023/09/14 11:37:03;;;;;;;7.80;4.28;;;;;;;31.04;28.58;65223.72;4816523;29;20213;-77
2023/09/14 11:39:34;;;;;;;6.97;4.40;;;;;;;30.82;28.68;65200.06;4818779;29;20538;-76